Time;durP1;ratioP1;P1;durP2;ratioP2;P2;SDS_P1;SDS_P2;PMS_P1;PMS_P2;Temp;Humidity;BMP_temperature;BMP_pressure;BME280_temperature;BME280_humidity;BME280_pressure;Samples;Min_cycle;Max_cycle;Signal;HPM_P1;HPM_P2
2021/08/09 00:00:05;;;;;;;0.10;0.10;;;13.80;99.90;;;;;;4959466;28;20039;-88
2021/08/09 00:02:31;;;;;;;0.15;0.15;;;13.70;99.90;;;;;;4958479;28;20031;-88
2021/08/09 00:04:57;;;;;;;0.20;0.20;;;13.80;99.90;;;;;;4946641;28;20793;-87
2021/08/09 00:07:22;;;;;;;0.10;0.10;;;13.70;99.90;;;;;;4956416;28;20153;-86
2021/08/09 00:09:48;;;;;;;0.77;0.43;;;13.60;99.90;;;;;;4955111;28;20235;-86
2021/08/09 00:12:13;;;;;;;0.20;0.20;;;13.60;99.90;;;;;;4958547;28;20842;-86
2021/08/09 00:14:39;;;;;;;0.20;0.20;;;13.60;99.90;;;;;;4954415;28;20863;-87
2021/08/09 00:17:06;;;;;;;0.47;0.37;;;13.60;99.90;;;;;;4954487;28;20079;-87
2021/08/09 00:19:32;;;;;;;1.35;0.38;;;13.50;99.90;;;;;;4948145;28;20282;-87
2021/08/09 00:21:58;;;;;;;0.10;0.10;;;13.50;99.90;;;;;;4957452;28;20065;-87
2021/08/09 00:24:24;;;;;;;0.40;0.40;;;13.50;99.90;;;;;;4962396;28;20047;-87
2021/08/09 00:26:49;;;;;;;0.17;0.17;;;13.50;99.90;;;;;;4958157;28;20039;-85
2021/08/09 00:29:15;;;;;;;0.10;0.10;;;13.40;99.90;;;;;;4959839;28;20397;-87
2021/08/09 00:31:40;;;;;;;0.10;0.10;;;13.40;99.90;;;;;;4955641;28;20105;-87
2021/08/09 00:34:06;;;;;;;0.10;0.10;;;13.40;99.90;;;;;;4953352;28;20114;-87
2021/08/09 00:36:32;;;;;;;0.30;0.30;;;13.40;99.90;;;;;;4959999;28;20457;-86
2021/08/09 00:38:58;;;;;;;0.20;0.20;;;13.30;99.90;;;;;;4954427;28;20034;-86
2021/08/09 00:41:23;;;;;;;0.10;0.10;;;13.20;99.90;;;;;;4953036;28;20535;-87
2021/08/09 00:43:49;;;;;;;0.30;0.20;;;13.20;99.90;;;;;;4951248;28;20113;-87
2021/08/09 00:46:15;;;;;;;0.10;0.10;;;13.20;99.90;;;;;;4958113;28;20540;-87
2021/08/09 00:48:41;;;;;;;0.00;0.00;;;13.10;99.90;;;;;;4955381;28;20043;-87
2021/08/09 00:51:08;;;;;;;0.10;0.10;;;13.10;99.90;;;;;;4958291;28;20073;-87
2021/08/09 00:53:34;;;;;;;0.10;0.10;;;13.10;99.90;;;;;;4956818;28;20031;-87
2021/08/09 00:56:02;;;;;;;0.53;0.53;;;13.00;99.90;;;;;;4951657;28;20035;-87
2021/08/09 00:58:28;;;;;;;1.02;0.77;;;13.00;99.90;;;;;;4952982;28;20106;-86
2021/08/09 01:00:53;;;;;;;0.10;0.10;;;13.00;99.90;;;;;;4954426;28;20031;-86
2021/08/09 01:03:19;;;;;;;0.77;0.30;;;12.80;99.90;;;;;;4958181;28;20154;-86
2021/08/09 01:05:48;;;;;;;0.43;0.20;;;12.80;99.90;;;;;;4955256;28;20034;-86
2021/08/09 01:08:29;;;;;;;0.20;0.20;;;12.80;99.90;;;;;;4954765;28;20502;-86
2021/08/09 01:11:40;;;;;;;0.55;0.43;;;12.70;99.90;;;;;;4950318;28;20037;-86
2021/08/09 01:14:41;;;;;;;0.25;0.25;;;12.70;99.90;;;;;;4934968;28;20150;-86
2021/08/09 01:17:10;;;;;;;0.13;0.13;;;12.60;99.90;;;;;;4953330;28;20042;-86
2021/08/09 01:19:44;;;;;;;0.10;0.10;;;12.70;99.90;;;;;;4955956;28;20430;-87
2021/08/09 01:22:17;;;;;;;0.10;0.10;;;12.70;99.90;;;;;;4958274;28;20816;-87
2021/08/09 01:25:18;;;;;;;0.30;0.30;;;12.70;99.90;;;;;;4961049;28;20060;-87
2021/08/09 01:27:47;;;;;;;0.00;0.00;;;12.70;99.90;;;;;;4962688;28;20118;-87
2021/08/09 01:30:13;;;;;;;0.20;0.20;;;12.70;99.90;;;;;;4957152;28;20070;-87
2021/08/09 01:32:42;;;;;;;0.10;0.10;;;12.70;99.90;;;;;;4960403;28;20019;-87
2021/08/09 01:35:09;;;;;;;0.25;0.25;;;12.70;99.90;;;;;;4954515;28;20046;-87
2021/08/09 01:37:37;;;;;;;0.15;0.13;;;12.60;99.90;;;;;;4956959;28;20073;-86
2021/08/09 01:40:08;;;;;;;0.45;0.30;;;12.60;99.90;;;;;;4957969;28;20089;-87
2021/08/09 01:42:38;;;;;;;0.55;0.45;;;12.50;99.90;;;;;;4959895;28;20111;-86
2021/08/09 01:45:05;;;;;;;0.20;0.20;;;12.50;99.90;;;;;;4959109;28;20039;-87
2021/08/09 01:47:34;;;;;;;1.98;0.63;;;12.40;99.90;;;;;;4960540;28;20042;-85
2021/08/09 01:50:02;;;;;;;0.00;0.00;;;12.40;99.90;;;;;;4958143;28;20133;-86
2021/08/09 01:52:29;;;;;;;0.52;0.52;;;12.30;99.90;;;;;;4971559;28;20540;-86
2021/08/09 01:54:54;;;;;;;;;;;12.20;99.90;;;;;;4959839;28;20138;-87
2021/08/09 01:57:20;;;;;;;0.10;0.10;;;12.20;99.90;;;;;;4957661;28;20000;-87
2021/08/09 01:59:47;;;;;;;0.30;0.30;;;12.30;99.90;;;;;;4959956;28;20027;-87
2021/08/09 02:02:28;;;;;;;0.38;0.38;;;12.30;99.90;;;;;;4961075;28;20031;-87
2021/08/09 02:04:54;;;;;;;0.52;0.38;;;12.30;99.90;;;;;;4958720;28;20038;-86
2021/08/09 02:07:20;;;;;;;0.10;0.10;;;12.30;99.90;;;;;;4958193;28;20065;-87
2021/08/09 02:09:46;;;;;;;0.10;0.10;;;12.30;99.90;;;;;;4960581;28;20806;-87
2021/08/09 02:12:13;;;;;;;0.10;0.10;;;12.30;99.90;;;;;;4960929;28;20138;-86
2021/08/09 02:14:58;;;;;;;;;;;12.30;99.90;;;;;;4957093;28;20034;-85
2021/08/09 02:17:44;;;;;;;0.10;0.10;;;12.20;99.90;;;;;;4958015;28;19977;-86
2021/08/09 02:20:29;;;;;;;0.10;0.10;;;12.20;99.90;;;;;;4958336;28;20029;-86
2021/08/09 02:22:57;;;;;;;0.10;0.10;;;12.20;99.90;;;;;;4957740;28;20588;-86
2021/08/09 02:25:27;;;;;;;0.22;0.22;;;12.30;99.90;;;;;;4954748;28;20565;-86
2021/08/09 02:28:09;;;;;;;0.10;0.10;;;12.30;99.90;;;;;;4948473;28;20042;-86
2021/08/09 02:30:37;;;;;;;0.20;0.20;;;12.30;99.90;;;;;;4959476;28;20035;-86
2021/08/09 02:33:04;;;;;;;0.20;0.20;;;12.40;99.90;;;;;;4960942;28;20038;-86
2021/08/09 02:35:31;;;;;;;;;;;12.40;99.90;;;;;;4959822;28;20034;-87
2021/08/09 02:37:58;;;;;;;0.10;0.10;;;12.30;99.90;;;;;;4958524;28;20012;-86
2021/08/09 02:40:25;;;;;;;0.55;0.55;;;12.30;99.90;;;;;;4957942;28;20602;-87
2021/08/09 02:42:51;;;;;;;0.00;0.00;;;12.30;99.90;;;;;;4958165;28;20043;-86
2021/08/09 02:45:17;;;;;;;0.10;0.10;;;12.30;99.90;;;;;;4958645;28;20030;-87
2021/08/09 02:47:44;;;;;;;0.10;0.10;;;12.20;99.90;;;;;;4957181;28;20362;-86
2021/08/09 02:50:13;;;;;;;0.25;0.25;;;12.10;99.90;;;;;;4955263;28;20085;-85
2021/08/09 02:52:39;;;;;;;0.10;0.10;;;12.10;99.90;;;;;;4948424;28;20050;-86
2021/08/09 02:55:07;;;;;;;0.17;0.17;;;12.10;99.90;;;;;;4952072;28;20039;-87
2021/08/09 02:57:33;;;;;;;0.10;0.10;;;12.10;99.90;;;;;;4957279;28;20039;-87
2021/08/09 02:59:59;;;;;;;0.47;0.47;;;12.00;99.90;;;;;;4958549;28;20045;-87
2021/08/09 03:02:28;;;;;;;0.20;0.20;;;12.10;99.90;;;;;;4956860;28;20058;-86
2021/08/09 03:04:54;;;;;;;0.20;0.20;;;12.10;99.90;;;;;;4956356;28;20480;-87
2021/08/09 03:07:20;;;;;;;0.10;0.10;;;12.10;99.90;;;;;;4958729;28;20960;-86
2021/08/09 03:09:46;;;;;;;0.25;0.25;;;12.20;99.90;;;;;;4959583;28;20303;-86
2021/08/09 03:12:17;;;;;;;0.10;0.10;;;12.10;99.90;;;;;;4955760;28;20035;-87
2021/08/09 03:14:49;;;;;;;0.10;0.10;;;12.10;99.90;;;;;;4956952;28;20779;-86
2021/08/09 03:17:16;;;;;;;2.08;0.90;;;12.10;99.90;;;;;;4955982;28;20027;-86
2021/08/09 03:19:41;;;;;;;0.10;0.10;;;12.00;99.90;;;;;;4952589;28;20058;-87
2021/08/09 03:22:10;;;;;;;0.47;0.47;;;12.10;99.90;;;;;;4954518;28;20802;-87
2021/08/09 03:24:36;;;;;;;0.10;0.10;;;12.00;99.90;;;;;;4953784;28;20091;-86
2021/08/09 03:27:01;;;;;;;0.10;0.10;;;11.90;99.90;;;;;;4958754;28;20046;-86
2021/08/09 03:29:27;;;;;;;0.30;0.30;;;12.00;99.90;;;;;;4954314;28;20023;-86
2021/08/09 03:31:53;;;;;;;0.10;0.10;;;12.00;99.90;;;;;;4953389;28;20391;-87
2021/08/09 03:34:19;;;;;;;0.97;0.40;;;12.00;99.90;;;;;;4949377;28;20736;-88
2021/08/09 03:36:46;;;;;;;0.20;0.20;;;11.90;99.90;;;;;;4951452;28;20031;-87
2021/08/09 03:39:12;;;;;;;0.55;0.55;;;11.80;99.90;;;;;;4958677;28;20037;-87
2021/08/09 03:41:38;;;;;;;0.10;0.10;;;11.90;99.90;;;;;;4954531;28;20190;-86
2021/08/09 03:44:04;;;;;;;0.10;0.10;;;12.00;99.90;;;;;;4956420;28;20038;-86
2021/08/09 03:46:30;;;;;;;0.10;0.10;;;11.90;99.90;;;;;;4954263;28;20911;-86
2021/08/09 03:48:56;;;;;;;0.10;0.10;;;11.90;99.90;;;;;;4950200;28;20039;-86
2021/08/09 03:51:22;;;;;;;0.10;0.10;;;11.90;99.90;;;;;;4956500;28;20482;-86
2021/08/09 03:53:47;;;;;;;0.20;0.20;;;11.90;99.90;;;;;;4958204;28;20113;-86
2021/08/09 03:56:13;;;;;;;0.10;0.10;;;11.90;99.90;;;;;;4954927;28;20510;-87
2021/08/09 03:58:39;;;;;;;0.17;0.17;;;11.90;99.90;;;;;;4956303;28;20069;-86
2021/08/09 04:01:06;;;;;;;0.20;0.20;;;11.80;99.90;;;;;;4955260;28;20572;-86
2021/08/09 04:03:33;;;;;;;0.10;0.10;;;11.80;99.90;;;;;;4956841;28;20133;-86
2021/08/09 04:05:58;;;;;;;0.10;0.10;;;11.80;99.90;;;;;;4957470;28;20043;-87
2021/08/09 04:08:24;;;;;;;0.20;0.20;;;11.80;99.90;;;;;;4958776;28;20035;-86
2021/08/09 04:10:50;;;;;;;0.30;0.30;;;11.80;99.90;;;;;;4957890;28;20031;-86
2021/08/09 04:13:15;;;;;;;0.20;0.20;;;11.80;99.90;;;;;;4956643;28;20423;-86
2021/08/09 04:15:41;;;;;;;1.10;0.33;;;11.70;99.90;;;;;;4955978;28;20622;-87
2021/08/09 04:18:07;;;;;;;0.10;0.10;;;11.80;99.90;;;;;;4956469;28;20114;-87
2021/08/09 04:20:32;;;;;;;0.20;0.20;;;11.70;99.90;;;;;;4955773;28;20043;-87
2021/08/09 04:22:58;;;;;;;0.10;0.10;;;11.70;99.90;;;;;;4956046;28;20154;-87
2021/08/09 04:25:27;;;;;;;0.40;0.40;;;11.80;99.90;;;;;;4955798;28;20030;-86
2021/08/09 04:27:52;;;;;;;0.10;0.10;;;11.80;99.90;;;;;;4957454;28;20045;-87
2021/08/09 04:30:18;;;;;;;0.17;0.17;;;11.80;99.90;;;;;;4957928;28;20027;-86
2021/08/09 04:32:44;;;;;;;1.70;0.57;;;11.80;99.90;;;;;;4953397;28;20030;-87
2021/08/09 04:35:11;;;;;;;0.22;0.22;;;11.90;99.90;;;;;;4957608;28;20416;-85
2021/08/09 04:37:38;;;;;;;0.10;0.10;;;11.90;99.90;;;;;;4954035;28;20031;-87
2021/08/09 04:40:05;;;;;;;0.32;0.25;;;11.80;99.90;;;;;;4955925;28;20031;-87
2021/08/09 04:42:32;;;;;;;0.10;0.10;;;11.90;99.90;;;;;;4956593;28;20047;-87
2021/08/09 04:44:58;;;;;;;0.10;0.10;;;11.80;99.90;;;;;;4956332;28;20413;-87
2021/08/09 04:47:24;;;;;;;0.93;0.43;;;11.80;99.90;;;;;;4951405;28;20105;-87
2021/08/09 04:49:50;;;;;;;1.30;0.67;;;11.90;99.90;;;;;;4957961;28;20050;-87
2021/08/09 04:52:17;;;;;;;3.20;0.90;;;11.90;99.90;;;;;;4947025;28;20046;-87
2021/08/09 04:54:42;;;;;;;;;;;11.90;99.90;;;;;;4947244;28;20058;-87
2021/08/09 04:57:08;;;;;;;0.10;0.10;;;11.90;99.90;;;;;;4958422;28;20032;-86
2021/08/09 04:59:34;;;;;;;0.83;0.23;;;11.90;99.90;;;;;;4958480;28;20523;-86
2021/08/09 05:01:59;;;;;;;0.20;0.20;;;11.90;99.90;;;;;;4959766;28;20386;-86
2021/08/09 05:04:25;;;;;;;0.10;0.10;;;11.90;99.90;;;;;;4951642;28;20571;-87
2021/08/09 05:06:51;;;;;;;0.10;0.10;;;12.00;99.90;;;;;;4961845;28;20452;-86
2021/08/09 05:09:16;;;;;;;0.10;0.10;;;12.00;99.90;;;;;;4955430;28;20775;-87
2021/08/09 05:11:42;;;;;;;0.33;0.30;;;12.00;99.90;;;;;;4960374;28;20090;-86
2021/08/09 05:14:08;;;;;;;0.20;0.20;;;12.00;99.90;;;;;;4956043;28;20161;-86
2021/08/09 05:16:35;;;;;;;0.10;0.10;;;12.00;99.90;;;;;;4957360;28;20026;-86
2021/08/09 05:19:03;;;;;;;0.10;0.10;;;12.00;99.90;;;;;;4958044;28;20034;-87
2021/08/09 05:21:33;;;;;;;0.20;0.20;;;12.10;99.90;;;;;;4960238;28;20437;-88
2021/08/09 05:24:03;;;;;;;0.22;0.22;;;12.10;99.90;;;;;;4961692;28;20046;-87
2021/08/09 05:26:29;;;;;;;0.20;0.20;;;12.10;99.90;;;;;;4958927;28;20039;-86
2021/08/09 05:28:55;;;;;;;0.10;0.10;;;12.20;99.90;;;;;;4961399;28;20038;-87
2021/08/09 05:31:21;;;;;;;0.20;0.20;;;12.30;99.90;;;;;;4964218;28;20517;-87
2021/08/09 05:33:47;;;;;;;0.20;0.20;;;12.30;99.90;;;;;;4967750;28;20027;-87
2021/08/09 05:36:13;;;;;;;0.10;0.10;;;12.20;99.90;;;;;;4961715;28;20039;-88
2021/08/09 05:38:39;;;;;;;0.10;0.10;;;12.30;99.90;;;;;;4964671;28;20077;-86
2021/08/09 05:41:05;;;;;;;0.20;0.20;;;12.40;99.90;;;;;;4957918;28;20046;-86
2021/08/09 05:43:31;;;;;;;0.10;0.10;;;12.40;99.90;;;;;;4965493;28;24102;-87
2021/08/09 05:45:57;;;;;;;0.10;0.10;;;12.50;99.90;;;;;;4966285;28;20054;-87
2021/08/09 05:48:23;;;;;;;0.13;0.13;;;12.50;99.90;;;;;;4957685;28;20038;-87
2021/08/09 05:50:48;;;;;;;0.10;0.10;;;12.50;99.90;;;;;;4960865;28;20089;-87
2021/08/09 05:53:14;;;;;;;0.10;0.10;;;12.50;99.90;;;;;;4965878;28;20058;-87
2021/08/09 05:55:40;;;;;;;0.20;0.20;;;12.50;99.90;;;;;;4961915;28;20646;-88
2021/08/09 05:58:06;;;;;;;0.10;0.10;;;12.50;99.90;;;;;;4966389;28;20122;-87
2021/08/09 06:00:32;;;;;;;0.10;0.10;;;12.60;99.90;;;;;;4964120;28;20038;-87
2021/08/09 06:02:57;;;;;;;0.20;0.20;;;12.60;99.90;;;;;;4951026;28;20098;-87
2021/08/09 06:05:23;;;;;;;0.38;0.20;;;12.70;99.90;;;;;;4951721;28;20117;-86
2021/08/09 06:07:49;;;;;;;0.52;0.52;;;12.70;99.90;;;;;;4964452;28;20046;-88
2021/08/09 06:10:15;;;;;;;0.03;0.03;;;12.70;99.90;;;;;;4962356;28;20516;-87
2021/08/09 06:12:40;;;;;;;10.00;1.38;;;12.80;99.90;;;;;;4967563;28;20624;-87
2021/08/09 06:15:07;;;;;;;0.10;0.10;;;12.80;99.90;;;;;;4961057;28;20035;-89
2021/08/09 06:17:36;;;;;;;;;;;12.80;99.90;;;;;;4965692;28;20117;-88
2021/08/09 06:20:03;;;;;;;0.10;0.10;;;12.90;99.90;;;;;;4961217;28;19914;-87
2021/08/09 06:22:29;;;;;;;0.30;0.30;;;13.00;99.90;;;;;;4964550;28;20051;-86
2021/08/09 06:24:55;;;;;;;0.70;0.55;;;13.10;99.90;;;;;;4963209;28;20034;-87
2021/08/09 06:27:21;;;;;;;0.30;0.30;;;13.20;99.90;;;;;;4963228;28;20130;-87
2021/08/09 06:29:47;;;;;;;0.10;0.10;;;13.20;99.90;;;;;;4964374;28;20523;-87
2021/08/09 06:32:12;;;;;;;0.10;0.10;;;13.40;99.90;;;;;;4961124;28;20083;-87
2021/08/09 06:34:38;;;;;;;0.00;0.00;;;13.40;99.90;;;;;;4960933;28;20835;-87
2021/08/09 06:37:04;;;;;;;0.20;0.20;;;13.60;99.90;;;;;;4952016;28;20042;-87
2021/08/09 06:39:29;;;;;;;0.20;0.20;;;13.70;99.90;;;;;;4961498;28;20027;-88
2021/08/09 06:41:58;;;;;;;0.05;0.05;;;13.80;99.90;;;;;;4961191;28;20031;-88
2021/08/09 06:44:24;;;;;;;2.55;1.17;;;13.80;99.90;;;;;;4964345;28;20114;-87
2021/08/09 06:46:49;;;;;;;0.10;0.10;;;13.80;99.90;;;;;;4965067;28;20065;-87
2021/08/09 06:49:15;;;;;;;0.10;0.10;;;13.90;99.90;;;;;;4964302;28;20047;-87
2021/08/09 06:51:41;;;;;;;0.10;0.10;;;14.10;99.90;;;;;;4965441;28;20603;-87
2021/08/09 06:54:06;;;;;;;0.20;0.20;;;14.20;99.90;;;;;;4961726;28;20026;-87
2021/08/09 06:56:32;;;;;;;0.10;0.10;;;14.30;99.90;;;;;;4962813;28;20596;-88
2021/08/09 06:58:58;;;;;;;0.67;0.47;;;14.20;99.90;;;;;;4961706;28;20027;-88
2021/08/09 07:01:24;;;;;;;0.10;0.10;;;14.10;99.90;;;;;;4958295;28;20074;-87
2021/08/09 07:03:49;;;;;;;0.20;0.20;;;14.00;99.90;;;;;;4966241;28;20085;-87
2021/08/09 07:06:21;;;;;;;0.30;0.30;;;14.10;99.90;;;;;;4962793;28;20035;-87
2021/08/09 07:08:50;;;;;;;1.95;0.75;;;14.20;99.90;;;;;;4959396;28;20113;-88
2021/08/09 07:11:17;;;;;;;0.10;0.10;;;14.40;99.90;;;;;;4960375;28;20077;-88
2021/08/09 07:13:42;;;;;;;0.03;0.03;;;14.60;99.90;;;;;;4963707;28;20031;-87
2021/08/09 07:16:08;;;;;;;0.10;0.10;;;14.70;99.90;;;;;;4965018;28;20094;-87
2021/08/09 07:18:34;;;;;;;0.10;0.10;;;14.90;99.90;;;;;;4964326;28;20102;-87
2021/08/09 07:21:00;;;;;;;0.23;0.23;;;15.00;99.90;;;;;;4960623;28;20045;-87
2021/08/09 07:23:26;;;;;;;0.00;0.00;;;15.00;99.90;;;;;;4960075;28;20051;-88
2021/08/09 07:25:52;;;;;;;0.20;0.20;;;14.90;99.90;;;;;;4961974;28;20093;-87
2021/08/09 07:28:18;;;;;;;0.03;0.03;;;15.10;99.90;;;;;;4963579;28;20177;-87
2021/08/09 07:30:43;;;;;;;2.23;1.20;;;15.20;99.90;;;;;;4964660;28;20751;-87
2021/08/09 07:33:09;;;;;;;0.27;0.27;;;15.30;99.90;;;;;;4951545;28;20050;-87
2021/08/09 07:35:35;;;;;;;0.00;0.00;;;15.70;99.90;;;;;;4956800;28;20023;-87
2021/08/09 07:38:00;;;;;;;0.20;0.20;;;15.90;99.90;;;;;;4957044;28;20037;-87
2021/08/09 07:40:26;;;;;;;0.07;0.07;;;16.80;99.90;;;;;;4964589;28;20055;-89
2021/08/09 07:42:52;;;;;;;0.10;0.10;;;19.60;99.90;;;;;;4965069;28;20125;-87
2021/08/09 07:45:18;;;;;;;0.13;0.13;;;19.00;99.90;;;;;;4956830;28;20789;-88
2021/08/09 07:47:43;;;;;;;0.03;0.03;;;18.10;99.90;;;;;;4957626;28;20050;-88
2021/08/09 07:50:10;;;;;;;0.33;0.33;;;17.20;99.90;;;;;;4958504;28;20027;-88
2021/08/09 07:52:36;;;;;;;0.05;0.05;;;17.60;99.90;;;;;;4964277;28;20058;-88
2021/08/09 07:55:02;;;;;;;0.00;0.00;;;19.70;99.90;;;;;;4957439;28;20028;-89
2021/08/09 07:57:28;;;;;;;0.05;0.00;;;22.10;99.90;;;;;;4959791;28;20398;-87
2021/08/09 07:59:54;;;;;;;0.10;0.10;;;20.50;99.90;;;;;;4958628;28;20034;-88
2021/08/09 08:02:20;;;;;;;0.03;0.03;;;21.10;99.90;;;;;;4963067;28;20290;-88
2021/08/09 08:04:46;;;;;;;0.00;0.00;;;21.70;99.90;;;;;;4950221;28;20030;-88
2021/08/09 08:07:11;;;;;;;0.10;0.10;;;24.00;99.90;;;;;;4948628;28;20113;-88
2021/08/09 08:09:37;;;;;;;0.00;0.00;;;24.20;99.90;;;;;;4948499;28;20032;-88
2021/08/09 08:12:03;;;;;;;0.00;0.00;;;23.30;99.90;;;;;;4951588;28;21038;-89
2021/08/09 08:14:29;;;;;;;0.10;0.05;;;24.10;99.90;;;;;;4947284;28;20034;-89
2021/08/09 08:16:55;;;;;;;0.00;0.00;;;23.50;99.90;;;;;;4947310;28;20035;-90
2021/08/09 08:19:22;;;;;;;0.00;0.00;;;25.20;99.90;;;;;;4948518;28;20045;-89
2021/08/09 08:21:48;;;;;;;0.00;0.00;;;25.70;99.90;;;;;;4944032;28;20031;-88
2021/08/09 08:24:14;;;;;;;1.10;0.30;;;26.20;99.90;;;;;;4950116;28;20125;-89
2021/08/09 08:26:40;;;;;;;0.10;0.10;;;25.50;98.10;;;;;;4947603;28;20066;-88
2021/08/09 08:29:05;;;;;;;0.00;0.00;;;27.30;98.30;;;;;;4948837;28;20034;-88
2021/08/09 08:31:31;;;;;;;0.03;0.03;;;27.20;96.00;;;;;;4961555;28;20512;-88
2021/08/09 08:33:57;;;;;;;0.40;0.10;;;29.10;92.90;;;;;;4954133;28;20031;-89
2021/08/09 08:36:22;;;;;;;0.00;0.00;;;27.40;90.40;;;;;;4961017;28;20073;-88
2021/08/09 08:38:48;;;;;;;0.20;0.20;;;25.20;93.10;;;;;;4958722;28;20059;-87
2021/08/09 08:41:16;;;;;;;0.00;0.00;;;23.00;95.50;;;;;;4949869;28;20130;-87
2021/08/09 08:43:42;;;;;;;0.15;0.00;;;22.60;98.20;;;;;;4951036;28;20115;-89
2021/08/09 08:46:08;;;;;;;0.20;0.20;;;24.40;96.60;;;;;;4953374;28;20035;-90
2021/08/09 08:48:35;;;;;;;0.00;0.00;;;26.80;92.70;;;;;;4951095;28;20520;-89
2021/08/09 08:51:02;;;;;;;0.00;0.00;;;28.20;92.60;;;;;;4950846;28;20039;-90
2021/08/09 08:53:28;;;;;;;;;;;29.10;89.50;;;;;;4951855;28;20038;-88
2021/08/09 08:55:54;;;;;;;0.93;0.80;;;27.90;91.10;;;;;;4962361;28;20591;-90
2021/08/09 08:58:20;;;;;;;;;;;26.10;92.40;;;;;;4964602;28;20065;-90
2021/08/09 09:00:47;;;;;;;;;;;25.70;92.60;;;;;;4958979;28;19914;-89
2021/08/09 09:03:22;;;;;;;0.00;0.00;;;26.80;92.20;;;;;;4954609;28;20009;-87
2021/08/09 09:06:04;;;;;;;0.35;0.35;;;26.40;92.80;;;;;;4956531;28;20081;-87
2021/08/09 09:08:43;;;;;;;0.00;0.00;;;26.30;92.20;;;;;;4959175;28;20027;-88
2021/08/09 09:11:34;;;;;;;0.60;0.55;;;24.50;93.40;;;;;;4960220;28;20058;-89
2021/08/09 09:14:05;;;;;;;0.75;0.30;;;23.90;94.80;;;;;;4965547;28;20065;-89
2021/08/09 09:16:44;;;;;;;1.65;0.75;;;23.40;95.90;;;;;;4960874;28;20034;-89
2021/08/09 09:19:11;;;;;;;0.00;0.00;;;22.10;98.30;;;;;;4956410;28;20026;-87
2021/08/09 09:21:37;;;;;;;0.00;0.00;;;21.90;99.00;;;;;;4955379;28;20019;-88
2021/08/09 09:24:18;;;;;;;0.10;0.10;;;21.80;98.60;;;;;;4962014;28;20081;-89
2021/08/09 09:27:07;;;;;;;0.15;0.10;;;22.00;98.50;;;;;;4962311;28;20162;-88
2021/08/09 09:29:35;;;;;;;0.00;0.00;;;22.60;99.90;;;;;;4957010;28;20769;-89
2021/08/09 09:32:13;;;;;;;0.00;0.00;;;22.90;96.80;;;;;;4957246;28;20039;-88
2021/08/09 09:35:08;;;;;;;0.00;0.00;;;24.20;95.30;;;;;;4967325;28;20038;-90
2021/08/09 09:37:36;;;;;;;0.10;0.10;;;24.30;94.60;;;;;;4960884;28;20043;-88
2021/08/09 09:40:09;;;;;;;0.00;0.00;;;25.60;93.60;;;;;;4968906;28;20106;-90
2021/08/09 09:42:37;;;;;;;0.20;0.20;;;27.30;90.70;;;;;;4957940;28;20102;-89
2021/08/09 09:45:23;;;;;;;0.00;0.00;;;26.70;90.20;;;;;;4956949;28;20138;-90
2021/08/09 09:48:15;;;;;;;;;;;25.30;91.70;;;;;;4954193;28;20031;-90
2021/08/09 09:50:43;;;;;;;0.15;0.08;;;24.50;93.30;;;;;;4958807;28;20436;-90
2021/08/09 09:53:16;;;;;;;0.00;0.00;;;24.40;93.70;;;;;;4966083;28;20030;-90
2021/08/09 09:55:43;;;;;;;0.90;0.52;;;26.10;91.70;;;;;;4967983;28;20078;-89
2021/08/09 09:58:09;;;;;;;0.05;0.05;;;28.10;83.50;;;;;;4967010;28;20117;-89
2021/08/09 10:00:35;;;;;;;0.00;0.00;;;28.00;82.30;;;;;;4962916;28;20098;-93
2021/08/09 10:03:01;;;;;;;0.10;0.10;;;26.90;86.20;;;;;;4966683;28;20038;-93
2021/08/09 10:05:28;;;;;;;0.00;0.00;;;26.80;87.00;;;;;;4967312;28;20402;-88
2021/08/09 10:07:56;;;;;;;0.00;0.00;;;24.90;91.00;;;;;;4958083;28;20066;-92
2021/08/09 10:10:23;;;;;;;0.20;0.20;;;24.50;91.90;;;;;;4965864;28;20115;-90
2021/08/09 10:12:52;;;;;;;0.00;0.00;;;26.20;91.00;;;;;;4953534;28;20042;-89
2021/08/09 10:15:20;;;;;;;0.10;0.10;;;25.50;90.80;;;;;;4957414;28;20429;-89
2021/08/09 10:17:51;;;;;;;0.63;0.47;;;25.20;90.90;;;;;;4960033;28;20078;-87
2021/08/09 10:20:18;;;;;;;0.00;0.00;;;26.10;88.70;;;;;;4955988;28;20031;-90
2021/08/09 10:23:05;;;;;;;0.00;0.00;;;26.90;86.10;;;;;;4952512;28;20125;-89
2021/08/09 10:25:51;;;;;;;0.20;0.08;;;28.50;83.30;;;;;;4957882;28;20465;-89
2021/08/09 10:28:19;;;;;;;0.10;0.10;;;31.20;74.90;;;;;;4955565;28;20456;-88
2021/08/09 10:30:45;;;;;;;0.08;0.08;;;30.10;73.00;;;;;;4965870;28;20039;-87
2021/08/09 10:33:11;;;;;;;0.17;0.10;;;28.90;78.20;;;;;;4965294;28;20031;-87
2021/08/09 10:35:46;;;;;;;0.20;0.13;;;28.70;78.40;;;;;;4965045;28;20031;-87
2021/08/09 10:38:18;;;;;;;0.00;0.00;;;28.70;77.70;;;;;;4964605;28;20026;-88
2021/08/09 10:40:46;;;;;;;0.00;0.00;;;28.90;78.20;;;;;;4965066;28;20030;-88
2021/08/09 10:43:12;;;;;;;0.32;0.10;;;30.80;73.70;;;;;;4964462;28;20026;-87
2021/08/09 10:45:40;;;;;;;0.30;0.20;;;32.50;66.00;;;;;;4965081;28;20038;-87
2021/08/09 10:48:08;;;;;;;0.10;0.10;;;31.50;58.60;;;;;;4964438;28;20433;-87
2021/08/09 10:50:46;;;;;;;0.10;0.10;;;31.30;58.60;;;;;;4964888;28;20109;-87
2021/08/09 10:53:24;;;;;;;0.47;0.20;;;29.20;59.40;;;;;;4959926;28;20143;-88
2021/08/09 10:55:50;;;;;;;0.00;0.00;;;28.60;64.90;;;;;;4964818;28;20119;-88
2021/08/09 10:58:41;;;;;;;0.00;0.00;;;27.60;67.70;;;;;;4964196;28;20042;-87
2021/08/09 11:01:07;;;;;;;0.00;0.00;;;28.40;67.70;;;;;;4961851;28;20037;-87
2021/08/09 11:03:33;;;;;;;;;;;29.70;65.40;;;;;;4966394;28;20037;-87
2021/08/09 11:06:18;;;;;;;;;;;27.50;65.80;;;;;;4963188;28;19918;-88
2021/08/09 11:08:44;;;;;;;0.00;0.00;;;26.10;70.80;;;;;;4964372;28;19910;-87
2021/08/09 11:11:10;;;;;;;0.00;0.00;;;26.50;70.30;;;;;;4959626;28;20046;-87
2021/08/09 11:13:41;;;;;;;0.10;0.10;;;26.80;70.40;;;;;;4964679;28;20408;-87
2021/08/09 11:16:07;;;;;;;0.17;0.10;;;26.20;70.30;;;;;;4965326;28;20137;-88
2021/08/09 11:18:37;;;;;;;0.00;0.00;;;25.80;71.40;;;;;;4965827;28;20089;-88
2021/08/09 11:21:10;;;;;;;0.00;0.00;;;26.20;71.50;;;;;;4964726;28;20070;-87
2021/08/09 11:23:37;;;;;;;0.00;0.00;;;26.10;69.90;;;;;;4963449;28;20050;-88
2021/08/09 11:26:03;;;;;;;0.00;0.00;;;26.50;71.40;;;;;;4962005;28;20584;-87
2021/08/09 11:28:29;;;;;;;0.10;0.10;;;25.90;71.80;;;;;;4964193;28;20057;-87
2021/08/09 11:30:57;;;;;;;2.53;0.85;;;26.30;70.00;;;;;;4966428;28;20066;-87
2021/08/09 11:33:28;;;;;;;0.10;0.10;;;26.80;70.90;;;;;;4963848;28;20413;-87
2021/08/09 11:36:00;;;;;;;3.95;0.65;;;27.20;70.50;;;;;;4963977;28;20609;-87
2021/08/09 11:38:27;;;;;;;0.73;0.08;;;27.50;67.90;;;;;;4963790;28;20089;-87
2021/08/09 11:41:05;;;;;;;0.00;0.00;;;27.50;70.90;;;;;;4963268;28;20117;-86
2021/08/09 11:43:32;;;;;;;0.20;0.10;;;28.00;68.40;;;;;;4948471;28;20074;-88
2021/08/09 11:46:03;;;;;;;0.10;0.10;;;28.00;68.40;;;;;;4965855;28;20421;-87
2021/08/09 11:48:34;;;;;;;0.10;0.10;;;27.40;66.40;;;;;;4963126;28;20022;-87
2021/08/09 11:51:06;;;;;;;1.25;0.20;;;26.60;72.10;;;;;;4959361;28;20065;-87
2021/08/09 11:53:33;;;;;;;0.00;0.00;;;26.50;71.60;;;;;;4963285;28;20030;-87
2021/08/09 11:56:12;;;;;;;1.10;0.38;;;26.10;71.60;;;;;;4963621;28;20054;-87
2021/08/09 11:58:38;;;;;;;0.15;0.15;;;27.00;71.00;;;;;;4949561;28;20034;-87
2021/08/09 12:01:04;;;;;;;0.00;0.00;;;27.20;71.80;;;;;;4965060;28;20034;-87
2021/08/09 12:03:31;;;;;;;0.00;0.00;;;26.90;72.60;;;;;;4958403;28;20034;-88
2021/08/09 12:06:16;;;;;;;;;;;27.20;72.90;;;;;;4957168;28;20048;-87
2021/08/09 12:08:49;;;;;;;;;;;27.90;70.00;;;;;;4963316;28;19968;-88
2021/08/09 12:11:14;;;;;;;0.20;0.20;;;27.90;71.80;;;;;;4956815;28;19976;-87
2021/08/09 12:13:40;;;;;;;0.00;0.00;;;27.70;71.80;;;;;;4963506;28;20035;-88
2021/08/09 12:16:12;;;;;;;0.00;0.00;;;27.10;69.90;;;;;;4964116;28;20030;-88
2021/08/09 12:18:39;;;;;;;0.00;0.00;;;27.10;73.70;;;;;;4965469;28;20027;-88
2021/08/09 12:21:14;;;;;;;0.00;0.00;;;27.30;71.40;;;;;;4963161;28;20035;-87
2021/08/09 12:23:57;;;;;;;0.47;0.17;;;27.30;69.70;;;;;;4962465;28;20046;-87
2021/08/09 12:26:24;;;;;;;0.00;0.00;;;27.20;70.40;;;;;;4963001;28;20417;-87
2021/08/09 12:28:56;;;;;;;0.32;0.20;;;27.20;70.10;;;;;;4963058;28;20049;-88
2021/08/09 12:31:40;;;;;;;0.00;0.00;;;27.00;69.70;;;;;;4962946;28;20023;-87
2021/08/09 12:34:09;;;;;;;0.00;0.00;;;26.50;71.90;;;;;;4961653;28;20865;-87
2021/08/09 12:36:36;;;;;;;0.10;0.10;;;26.50;71.20;;;;;;4964499;28;20027;-87
2021/08/09 12:39:03;;;;;;;0.00;0.00;;;26.10;72.20;;;;;;4962606;28;20087;-87
2021/08/09 12:41:30;;;;;;;0.05;0.05;;;26.70;72.40;;;;;;4958561;28;20058;-88
2021/08/09 12:43:59;;;;;;;0.00;0.00;;;26.90;72.60;;;;;;4959909;28;20027;-88
2021/08/09 12:46:25;;;;;;;0.08;0.08;;;26.80;71.20;;;;;;4961385;28;20049;-87
2021/08/09 12:48:51;;;;;;;0.00;0.00;;;27.20;72.80;;;;;;4964784;28;20031;-87
2021/08/09 12:51:18;;;;;;;0.00;0.00;;;26.20;73.20;;;;;;4962894;28;20050;-87
2021/08/09 12:53:44;;;;;;;0.00;0.00;;;26.50;72.80;;;;;;4962836;28;20030;-87
2021/08/09 12:56:10;;;;;;;0.10;0.10;;;27.00;70.20;;;;;;4963399;28;20073;-88